createdAt,value
2019-01-25T00:01:45.662Z,6.60
2019-01-25T00:04:15.871Z,6.83
2019-01-25T00:06:45.408Z,6.60
2019-01-25T00:09:15.026Z,5.87
2019-01-25T00:11:44.452Z,6.03
2019-01-25T00:14:13.068Z,6.23
2019-01-25T00:16:44.528Z,6.50
2019-01-25T00:19:21.007Z,6.47
2019-01-25T00:21:48.338Z,5.77
2019-01-25T00:24:15.646Z,5.63
2019-01-25T00:26:42.938Z,6.97
2019-01-25T00:29:10.282Z,5.73
2019-01-25T00:31:37.514Z,6.30
2019-01-25T00:34:04.783Z,5.77
2019-01-25T00:36:32.051Z,5.63
2019-01-25T00:38:59.268Z,7.00
2019-01-25T00:41:26.478Z,7.10
2019-01-25T00:43:53.678Z,5.00
2019-01-25T00:46:20.977Z,6.30
2019-01-25T00:48:48.154Z,5.90
2019-01-25T00:51:15.369Z,6.10
2019-01-25T00:53:42.660Z,5.30
2019-01-25T00:56:09.802Z,5.70
2019-01-25T00:58:36.972Z,5.77
2019-01-25T01:01:04.495Z,6.30
2019-01-25T01:03:31.810Z,6.10
2019-01-25T01:05:58.958Z,5.67
2019-01-25T01:08:26.200Z,5.30
2019-01-25T01:10:53.473Z,5.23
2019-01-25T01:13:20.726Z,5.77
2019-01-25T01:15:47.878Z,5.43
2019-01-25T01:18:15.181Z,5.70
2019-01-25T01:20:42.393Z,5.87
2019-01-25T01:23:09.590Z,6.80
2019-01-25T01:25:36.830Z,6.43
2019-01-25T01:28:04.118Z,5.83
2019-01-25T01:30:31.334Z,5.30
2019-01-25T01:32:58.539Z,5.30
2019-01-25T01:35:25.725Z,5.83
2019-01-25T01:37:53.001Z,5.20
2019-01-25T01:40:22.436Z,5.50
2019-01-25T01:42:49.776Z,5.37
2019-01-25T01:45:17.046Z,6.27
2019-01-25T01:47:44.202Z,5.90
2019-01-25T01:50:12.880Z,5.10
2019-01-25T01:52:40.104Z,6.23
2019-01-25T01:55:07.445Z,5.53
2019-01-25T01:57:34.646Z,5.20
2019-01-25T02:00:01.887Z,5.33
2019-01-25T02:02:29.132Z,6.47
2019-01-25T02:04:56.361Z,5.53
2019-01-25T02:07:23.562Z,5.73
2019-01-25T02:09:50.931Z,5.63
2019-01-25T02:12:18.432Z,5.67
2019-01-25T02:14:45.618Z,5.30
2019-01-25T02:17:12.922Z,6.40
2019-01-25T02:19:40.149Z,5.23
2019-01-25T02:22:07.396Z,5.77
2019-01-25T02:24:34.671Z,5.17
2019-01-25T02:27:01.938Z,5.53
2019-01-25T02:29:29.143Z,5.10
2019-01-25T02:31:56.478Z,6.00
2019-01-25T02:34:23.686Z,4.80
2019-01-25T02:36:50.899Z,5.40
2019-01-25T02:39:18.131Z,4.30
2019-01-25T02:41:45.323Z,5.63
2019-01-25T02:44:12.605Z,5.90
2019-01-25T02:46:39.921Z,5.80
2019-01-25T02:49:07.154Z,4.93
2019-01-25T02:51:34.370Z,5.63
2019-01-25T02:54:01.723Z,5.00
2019-01-25T02:56:28.955Z,4.40
2019-01-25T02:58:56.162Z,5.87
2019-01-25T03:01:23.375Z,5.50
2019-01-25T03:03:50.571Z,5.10
2019-01-25T03:06:17.762Z,5.30
2019-01-25T03:08:46.633Z,5.37
2019-01-25T03:11:14.124Z,4.80
2019-01-25T03:13:41.368Z,4.77
2019-01-25T03:16:08.713Z,4.70
2019-01-25T03:18:35.944Z,4.93
2019-01-25T03:21:04.942Z,4.83
2019-01-25T03:23:32.396Z,5.30
2019-01-25T03:25:59.776Z,5.87
2019-01-25T03:28:26.969Z,5.30
2019-01-25T03:30:54.282Z,5.93
2019-01-25T03:33:21.523Z,4.90
2019-01-25T03:35:48.725Z,4.77
2019-01-25T03:38:16.000Z,4.80
2019-01-25T03:40:43.178Z,4.93
2019-01-25T03:43:10.417Z,4.80
2019-01-25T03:45:37.644Z,4.50
2019-01-25T03:48:06.664Z,4.93
2019-01-25T03:50:33.924Z,5.27
2019-01-25T03:53:01.131Z,5.07
2019-01-25T03:55:28.478Z,4.40
2019-01-25T03:57:55.690Z,5.00
2019-01-25T04:00:24.717Z,4.60
2019-01-25T04:02:52.062Z,4.53
2019-01-25T04:05:19.278Z,4.90
2019-01-25T04:07:46.575Z,5.20
2019-01-25T04:10:15.571Z,5.00
2019-01-25T04:12:42.819Z,4.90
2019-01-25T04:15:12.760Z,4.80
2019-01-25T04:17:40.050Z,4.90
2019-01-25T04:20:09.347Z,5.00
2019-01-25T04:22:36.567Z,5.27
2019-01-25T04:25:05.906Z,5.13
2019-01-25T04:27:33.116Z,4.43
2019-01-25T04:30:00.368Z,5.07
2019-01-25T04:32:27.739Z,5.07
2019-01-25T04:34:54.957Z,5.00
2019-01-25T04:37:22.207Z,5.23
2019-01-25T04:39:49.459Z,4.33
2019-01-25T04:42:16.701Z,4.87
2019-01-25T04:44:43.948Z,4.80
2019-01-25T04:47:11.308Z,4.60
2019-01-25T04:49:38.538Z,4.97
2019-01-25T04:52:11.618Z,4.10
2019-01-25T04:54:38.850Z,4.43
2019-01-25T04:57:05.992Z,4.20
2019-01-25T04:59:33.260Z,4.90
2019-01-25T05:02:00.492Z,5.10
2019-01-25T05:04:29.619Z,4.63
2019-01-25T05:06:56.817Z,4.80
2019-01-25T05:09:23.999Z,5.30
2019-01-25T05:11:51.165Z,4.87
2019-01-25T05:14:18.370Z,4.40
2019-01-25T05:16:45.583Z,5.33
2019-01-25T05:19:12.841Z,4.50
2019-01-25T05:21:40.022Z,4.77
2019-01-25T05:24:10.411Z,4.50
2019-01-25T05:26:37.738Z,4.80
2019-01-25T05:29:05.046Z,5.57
2019-01-25T05:31:32.351Z,5.77
2019-01-25T05:33:59.557Z,4.47
2019-01-25T05:36:29.966Z,4.73
2019-01-25T05:39:08.327Z,4.57
2019-01-25T05:41:41.242Z,5.30
2019-01-25T05:44:08.731Z,4.70
2019-01-25T05:46:39.267Z,4.27
2019-01-25T05:49:06.545Z,4.17
2019-01-25T05:51:33.920Z,5.20
2019-01-25T05:54:01.209Z,4.93
2019-01-25T05:56:28.546Z,4.73
2019-01-25T05:58:55.854Z,4.23
2019-01-25T06:01:23.031Z,4.30
2019-01-25T06:03:50.230Z,4.70
2019-01-25T06:06:17.398Z,4.80
2019-01-25T06:08:44.651Z,4.37
2019-01-25T06:11:12.531Z,4.93
2019-01-25T06:13:43.651Z,4.50
2019-01-25T06:16:11.022Z,4.93
2019-01-25T06:18:38.271Z,4.60
2019-01-25T06:21:05.808Z,5.43
2019-01-25T06:23:33.062Z,5.53
2019-01-25T06:26:00.294Z,4.90
2019-01-25T06:28:27.527Z,4.63
2019-01-25T06:30:54.777Z,6.30
2019-01-25T06:33:21.979Z,7.00
2019-01-25T06:35:49.308Z,7.27
2019-01-25T06:38:16.495Z,6.50
2019-01-25T06:40:43.703Z,6.30
2019-01-25T06:43:10.950Z,6.27
2019-01-25T06:45:38.184Z,6.33
2019-01-25T06:48:05.423Z,6.80
2019-01-25T06:50:32.607Z,6.33
2019-01-25T06:52:59.847Z,6.17
2019-01-25T06:55:27.687Z,7.07
2019-01-25T06:58:20.589Z,6.90
2019-01-25T07:00:57.232Z,6.47
2019-01-25T07:03:24.419Z,7.30
2019-01-25T07:05:51.688Z,6.23
2019-01-25T07:08:19.281Z,7.43
2019-01-25T07:10:46.558Z,7.33
2019-01-25T07:13:13.780Z,7.90
2019-01-25T07:15:41.181Z,6.50
2019-01-25T07:18:08.440Z,6.27
2019-01-25T07:20:35.610Z,6.53
2019-01-25T07:23:02.873Z,6.70
2019-01-25T07:25:30.149Z,7.37
2019-01-25T07:27:59.247Z,7.60
2019-01-25T07:30:26.485Z,6.77
2019-01-25T07:32:53.674Z,7.20
2019-01-25T07:35:20.958Z,7.10
2019-01-25T07:37:48.336Z,7.83
2019-01-25T07:40:15.625Z,6.80
2019-01-25T07:42:42.849Z,7.90
2019-01-25T07:45:10.040Z,6.67
2019-01-25T07:47:37.237Z,6.43
2019-01-25T07:50:04.820Z,7.47
2019-01-25T07:52:32.062Z,7.13
2019-01-25T07:54:59.333Z,6.70
2019-01-25T07:57:26.542Z,6.50
2019-01-25T07:59:53.865Z,6.70
2019-01-25T08:02:21.183Z,7.30
2019-01-25T08:04:48.557Z,6.63
2019-01-25T08:07:15.860Z,6.17
2019-01-25T08:09:43.099Z,6.53
2019-01-25T08:12:10.303Z,5.77
2019-01-25T08:14:37.642Z,5.97
2019-01-25T08:17:05.153Z,6.70
2019-01-25T08:19:32.330Z,6.23
2019-01-25T08:21:59.543Z,6.30
2019-01-25T08:24:26.969Z,6.90
2019-01-25T08:26:55.849Z,6.03
2019-01-25T08:29:27.952Z,6.27
2019-01-25T08:31:52.297Z,6.50
2019-01-25T08:34:19.488Z,6.10
2019-01-25T08:36:46.720Z,6.37
2019-01-25T08:39:13.895Z,5.33
2019-01-25T08:41:41.128Z,5.93
2019-01-25T08:44:08.362Z,6.50
2019-01-25T08:46:36.031Z,5.93
2019-01-25T08:49:03.407Z,6.20
2019-01-25T08:51:30.735Z,6.17
2019-01-25T08:53:58.035Z,6.10
2019-01-25T08:56:25.352Z,6.20
2019-01-25T08:59:12.026Z,5.60
2019-01-25T09:01:39.671Z,7.30
2019-01-25T09:04:06.918Z,5.90
2019-01-25T09:06:34.146Z,5.53
2019-01-25T09:09:01.587Z,5.93
2019-01-25T09:11:28.874Z,5.50
2019-01-25T09:13:56.322Z,6.00
2019-01-25T09:16:23.623Z,5.50
2019-01-25T09:18:50.834Z,5.50
2019-01-25T09:21:18.038Z,6.23
2019-01-25T09:23:45.280Z,6.67
2019-01-25T09:26:12.429Z,5.37
2019-01-25T09:28:40.049Z,6.07
2019-01-25T09:31:07.268Z,5.53
2019-01-25T09:33:34.499Z,5.70
2019-01-25T09:36:01.729Z,6.00
2019-01-25T09:38:29.044Z,5.87
2019-01-25T09:40:56.292Z,6.00
2019-01-25T09:43:24.073Z,6.50
2019-01-25T09:45:51.284Z,5.80
2019-01-25T09:48:18.824Z,5.50
2019-01-25T09:50:52.553Z,5.90
2019-01-25T09:53:15.181Z,6.00
2019-01-25T09:55:42.375Z,5.90
2019-01-25T09:58:11.761Z,5.67
2019-01-25T10:00:51.942Z,6.50
2019-01-25T10:03:19.148Z,5.20
2019-01-25T10:05:46.373Z,5.83
2019-01-25T10:08:13.635Z,5.40
2019-01-25T10:10:40.853Z,5.80
2019-01-25T10:13:08.124Z,5.37
2019-01-25T10:15:35.316Z,5.83
2019-01-25T10:18:02.522Z,5.07
2019-01-25T10:20:29.770Z,6.20
2019-01-25T10:22:56.995Z,6.20
2019-01-25T10:25:24.199Z,6.00
2019-01-25T10:27:51.479Z,5.13
2019-01-25T10:30:21.106Z,5.73
2019-01-25T10:32:48.303Z,4.97
2019-01-25T10:35:15.523Z,5.93
2019-01-25T10:37:42.747Z,5.20
2019-01-25T10:40:12.473Z,5.23
2019-01-25T10:42:44.304Z,5.80
2019-01-25T10:45:20.905Z,4.80
2019-01-25T10:47:48.127Z,6.73
2019-01-25T10:50:15.851Z,5.37
2019-01-25T10:52:43.178Z,4.73
2019-01-25T10:55:10.385Z,5.67
2019-01-25T10:57:37.613Z,5.83
2019-01-25T11:00:07.055Z,6.20
2019-01-25T11:02:34.359Z,5.70
2019-01-25T11:05:01.546Z,5.50
2019-01-25T11:07:28.751Z,5.77
2019-01-25T11:09:55.982Z,5.03
2019-01-25T11:12:23.188Z,5.30
2019-01-25T11:14:50.442Z,5.43
2019-01-25T11:17:17.769Z,5.13
2019-01-25T11:19:45.010Z,5.10
2019-01-25T11:22:12.158Z,5.70
2019-01-25T11:24:39.390Z,5.40
2019-01-25T11:27:06.592Z,5.37
2019-01-25T11:29:33.907Z,6.07
2019-01-25T11:32:01.095Z,6.57
2019-01-25T11:34:33.040Z,5.53
2019-01-25T11:36:57.444Z,6.33
2019-01-25T11:39:24.620Z,5.83
2019-01-25T11:41:51.838Z,5.60
2019-01-25T11:44:19.039Z,5.77
2019-01-25T11:46:46.354Z,5.90
2019-01-25T11:49:13.552Z,5.70
2019-01-25T11:51:40.758Z,5.10
2019-01-25T11:54:08.005Z,5.50
2019-01-25T11:56:35.166Z,5.80
2019-01-25T11:59:02.404Z,5.13
2019-01-25T12:01:29.666Z,5.50
2019-01-25T12:03:56.861Z,6.03
2019-01-25T12:06:24.072Z,5.80
2019-01-25T12:08:51.301Z,5.77
2019-01-25T12:11:18.491Z,5.37
2019-01-25T12:13:45.879Z,6.50
2019-01-25T12:16:13.061Z,5.03
2019-01-25T12:18:40.234Z,5.60
2019-01-25T12:21:07.463Z,5.47
2019-01-25T12:23:34.646Z,5.30
2019-01-25T12:26:01.843Z,6.17
2019-01-25T12:28:29.037Z,6.10
2019-01-25T12:30:56.262Z,5.30
2019-01-25T12:33:23.446Z,6.00
2019-01-25T12:35:50.638Z,6.23
2019-01-25T12:38:17.891Z,6.23
2019-01-25T12:40:45.084Z,5.00
2019-01-25T12:43:12.305Z,5.23
2019-01-25T12:45:39.593Z,5.50
2019-01-25T12:48:06.927Z,5.90
2019-01-25T12:50:39.882Z,5.93
2019-01-25T12:53:07.465Z,5.97
2019-01-25T12:55:34.842Z,6.50
2019-01-25T12:58:02.036Z,5.97
2019-01-25T13:00:30.225Z,5.80
2019-01-25T13:02:57.482Z,6.80
2019-01-25T13:05:24.699Z,6.57
2019-01-25T13:07:51.889Z,6.03
2019-01-25T13:10:19.497Z,6.67
2019-01-25T13:12:46.659Z,6.67
2019-01-25T13:15:13.946Z,5.57
2019-01-25T13:17:41.121Z,7.40
2019-01-25T13:20:14.627Z,6.60
2019-01-25T13:22:41.990Z,6.70
2019-01-25T13:25:09.192Z,6.27
2019-01-25T13:27:36.501Z,6.80
2019-01-25T13:30:05.806Z,9.23
2019-01-25T13:32:33.226Z,9.03
2019-01-25T13:35:00.682Z,9.60
2019-01-25T13:37:31.508Z,11.53
2019-01-25T13:41:27.502Z,11.07
2019-01-25T13:43:56.440Z,11.13
2019-01-25T13:46:23.866Z,10.40
2019-01-25T13:48:51.138Z,11.47
2019-01-25T13:51:18.436Z,11.60
2019-01-25T13:53:45.614Z,11.10
2019-01-25T13:56:12.785Z,11.83
2019-01-25T13:58:40.011Z,12.40
2019-01-25T14:01:07.230Z,10.80
2019-01-25T14:03:34.433Z,11.40
2019-01-25T14:06:01.616Z,12.07
2019-01-25T14:08:28.958Z,11.90
2019-01-25T14:10:56.182Z,11.20
2019-01-25T14:13:23.470Z,11.33
2019-01-25T14:15:50.701Z,11.73
2019-01-25T14:18:17.854Z,11.33
2019-01-25T14:20:45.075Z,11.53
2019-01-25T14:23:12.294Z,11.97
2019-01-25T14:25:39.490Z,11.17
2019-01-25T14:28:06.703Z,10.57
2019-01-25T14:30:42.863Z,10.77
2019-01-25T14:33:10.151Z,10.93
2019-01-25T14:35:38.055Z,10.53
2019-01-25T14:38:06.162Z,10.37
2019-01-25T14:40:33.374Z,11.13
2019-01-25T14:43:00.596Z,11.23
2019-01-25T14:45:27.796Z,10.60
2019-01-25T14:47:55.023Z,11.13
2019-01-25T14:50:22.712Z,9.40
2019-01-25T14:52:49.923Z,11.00
2019-01-25T14:55:17.092Z,10.20
2019-01-25T14:57:44.287Z,10.77
2019-01-25T15:00:11.743Z,10.87
2019-01-25T15:02:38.947Z,9.60
2019-01-25T15:05:08.252Z,9.73
2019-01-25T15:07:35.445Z,9.30
2019-01-25T15:10:02.875Z,10.17
2019-01-25T15:12:30.135Z,9.20
2019-01-25T15:14:57.376Z,10.00
2019-01-25T15:17:24.601Z,10.27
2019-01-25T15:19:51.814Z,10.17
2019-01-25T15:22:19.138Z,10.00
2019-01-25T15:24:46.345Z,9.47
2019-01-25T15:27:13.547Z,9.60
2019-01-25T15:29:40.762Z,10.80
2019-01-25T15:32:07.934Z,8.37
2019-01-25T15:34:35.271Z,8.43
2019-01-25T15:37:02.464Z,10.20
2019-01-25T15:39:29.629Z,10.80
2019-01-25T15:41:56.844Z,9.70
2019-01-25T15:44:24.024Z,9.57
2019-01-25T15:46:51.253Z,9.40
2019-01-25T15:49:18.495Z,8.53
2019-01-25T15:51:45.702Z,9.37
2019-01-25T15:54:12.910Z,8.83
2019-01-25T15:56:40.139Z,9.97
2019-01-25T15:59:07.321Z,8.43
2019-01-25T16:01:34.556Z,9.00
2019-01-25T16:04:01.739Z,9.90
2019-01-25T16:06:28.945Z,8.10
2019-01-25T16:08:56.151Z,7.90
2019-01-25T16:11:23.332Z,9.10
2019-01-25T16:13:50.559Z,9.40
2019-01-25T16:16:17.731Z,9.50
2019-01-25T16:18:44.947Z,9.23
2019-01-25T16:21:12.122Z,8.97
2019-01-25T16:23:39.377Z,9.43
2019-01-25T16:26:06.573Z,8.70
2019-01-25T16:28:33.785Z,8.03
2019-01-25T16:31:02.097Z,7.77
2019-01-25T16:33:29.398Z,7.87
2019-01-25T16:35:56.628Z,8.13
2019-01-25T16:38:23.850Z,9.07
2019-01-25T16:40:51.017Z,8.50
2019-01-25T16:43:18.207Z,8.23
2019-01-25T16:45:45.386Z,9.50
2019-01-25T16:48:12.643Z,8.70
2019-01-25T16:50:40.072Z,9.30
2019-01-25T16:53:09.020Z,8.30
2019-01-25T16:55:36.278Z,9.10
2019-01-25T16:58:03.434Z,8.67
2019-01-25T17:00:32.827Z,7.93
2019-01-25T17:03:00.099Z,8.10
2019-01-25T17:05:27.310Z,8.17
2019-01-25T17:07:54.518Z,7.80
2019-01-25T17:10:21.732Z,7.97
2019-01-25T17:12:48.916Z,7.30
2019-01-25T17:15:16.153Z,7.33
2019-01-25T17:17:43.358Z,7.33
2019-01-25T17:20:17.493Z,8.40
2019-01-25T17:22:39.761Z,8.33
2019-01-25T17:25:07.727Z,7.73
2019-01-25T17:27:35.723Z,8.20
2019-01-25T17:30:04.421Z,7.53
2019-01-25T17:32:31.626Z,7.60
2019-01-25T17:34:58.801Z,7.43
2019-01-25T17:37:26.147Z,8.60
2019-01-25T17:39:53.334Z,6.77
2019-01-25T17:42:20.569Z,8.40
2019-01-25T17:44:47.882Z,7.40
2019-01-25T17:47:15.103Z,7.30
2019-01-25T17:49:42.273Z,8.10
2019-01-25T17:52:09.467Z,7.67
2019-01-25T17:54:36.651Z,7.40
2019-01-25T17:57:03.926Z,7.93
2019-01-25T17:59:31.178Z,7.30
2019-01-25T18:01:58.417Z,7.37
2019-01-25T18:04:25.568Z,7.10
2019-01-25T18:06:52.876Z,7.57
2019-01-25T18:09:20.081Z,7.37
2019-01-25T18:11:47.266Z,7.30
2019-01-25T18:14:14.556Z,7.87
2019-01-25T18:16:41.758Z,7.30
2019-01-25T18:19:08.931Z,7.60
2019-01-25T18:21:36.135Z,7.43
2019-01-25T18:24:03.302Z,7.33
2019-01-25T18:26:30.535Z,6.97
2019-01-25T18:29:04.041Z,8.03
2019-01-25T18:31:31.925Z,7.20
2019-01-25T18:33:59.066Z,6.83
2019-01-25T18:36:26.270Z,7.10
2019-01-25T18:38:53.426Z,6.33
2019-01-25T18:41:20.728Z,6.50
2019-01-25T18:43:47.934Z,7.23
2019-01-25T18:46:15.121Z,7.47
2019-01-25T18:48:42.365Z,7.30
2019-01-25T18:51:09.564Z,7.73
2019-01-25T18:53:36.741Z,7.00
2019-01-25T18:56:05.299Z,7.47
2019-01-25T18:58:32.647Z,7.50
2019-01-25T19:00:59.845Z,7.30
2019-01-25T19:03:27.039Z,6.77
2019-01-25T19:05:54.214Z,6.67
2019-01-25T19:08:21.527Z,6.10
2019-01-25T19:10:48.705Z,7.20
2019-01-25T19:13:15.861Z,6.47
2019-01-25T19:15:43.589Z,6.93
2019-01-25T19:18:11.115Z,6.60
2019-01-25T19:20:38.479Z,7.23
2019-01-25T19:23:05.703Z,6.93
2019-01-25T19:25:32.845Z,7.47
2019-01-25T19:28:00.077Z,7.33
2019-01-25T19:30:29.936Z,6.50
2019-01-25T19:32:57.161Z,6.57
2019-01-25T19:35:24.368Z,7.13
2019-01-25T19:37:51.591Z,7.03
2019-01-25T19:40:19.521Z,7.40
2019-01-25T19:42:46.715Z,6.97
2019-01-25T19:45:13.909Z,6.03
2019-01-25T19:47:41.164Z,7.93
2019-01-25T19:50:10.284Z,7.13
2019-01-25T19:52:37.569Z,6.87
2019-01-25T19:55:06.414Z,6.30
2019-01-25T19:57:33.600Z,7.07
2019-01-25T20:00:00.869Z,6.73
2019-01-25T20:02:28.043Z,6.83
2019-01-25T20:04:55.511Z,5.43
2019-01-25T20:07:22.702Z,6.07
2019-01-25T20:09:49.878Z,6.27
2019-01-25T20:12:17.099Z,6.27
2019-01-25T20:14:44.291Z,5.70
2019-01-25T20:17:11.669Z,6.20
2019-01-25T20:19:38.839Z,6.40
2019-01-25T20:22:06.025Z,6.60
2019-01-25T20:24:33.357Z,6.63
2019-01-25T20:27:00.577Z,6.70
2019-01-25T20:29:27.783Z,7.10
2019-01-25T20:31:55.113Z,6.13
2019-01-25T20:34:22.328Z,5.80
2019-01-25T20:36:49.494Z,6.17
2019-01-25T20:39:16.723Z,6.23
2019-01-25T20:41:43.940Z,6.67
2019-01-25T20:44:11.398Z,5.53
2019-01-25T20:46:38.566Z,6.80
2019-01-25T20:49:05.794Z,5.33
2019-01-25T20:51:32.997Z,5.77
2019-01-25T20:54:00.320Z,6.30
2019-01-25T20:56:27.517Z,5.90
2019-01-25T20:58:54.693Z,6.47
2019-01-25T21:01:21.935Z,6.57
2019-01-25T21:03:49.113Z,6.50
2019-01-25T21:06:16.360Z,6.17
2019-01-25T21:08:43.531Z,6.17
2019-01-25T21:11:10.734Z,6.00
2019-01-25T21:13:37.963Z,6.00
2019-01-25T21:16:05.170Z,6.43
2019-01-25T21:18:32.503Z,5.53
2019-01-25T21:20:59.649Z,6.07
2019-01-25T21:23:26.931Z,5.43
2019-01-25T21:25:54.160Z,6.17
2019-01-25T21:28:21.355Z,6.20
2019-01-25T21:30:48.620Z,5.30
2019-01-25T21:33:15.807Z,5.80
2019-01-25T21:35:43.041Z,5.27
2019-01-25T21:38:10.307Z,6.60
2019-01-25T21:40:37.519Z,5.77
2019-01-25T21:43:05.396Z,6.00
2019-01-25T21:45:34.026Z,6.07
2019-01-25T21:48:03.105Z,6.10
2019-01-25T21:50:35.765Z,5.40
2019-01-25T21:53:03.022Z,5.20
2019-01-25T21:55:30.206Z,5.07
2019-01-25T21:57:57.384Z,5.70
2019-01-25T22:00:29.261Z,5.20
2019-01-25T22:02:56.470Z,5.80
2019-01-25T22:05:24.182Z,5.63
2019-01-25T22:07:51.458Z,5.43
2019-01-25T22:10:21.238Z,5.43
2019-01-25T22:12:48.400Z,5.73
2019-01-25T22:15:16.420Z,6.07
2019-01-25T22:17:43.665Z,5.80
2019-01-25T22:20:21.551Z,5.50
2019-01-25T22:22:48.791Z,5.20
2019-01-25T22:25:15.986Z,5.20
2019-01-25T22:27:43.927Z,6.20
2019-01-25T22:30:13.534Z,5.17
2019-01-25T22:32:40.736Z,5.67
2019-01-25T22:35:07.973Z,5.33
2019-01-25T22:37:35.198Z,5.00
2019-01-25T22:40:02.387Z,4.80
2019-01-25T22:42:29.622Z,5.40
2019-01-25T22:44:56.813Z,4.77
2019-01-25T22:47:24.350Z,5.07
2019-01-25T22:49:51.554Z,5.27
2019-01-25T22:52:18.764Z,5.87
2019-01-25T22:54:45.965Z,4.73
2019-01-25T22:57:13.155Z,5.17
2019-01-25T22:59:40.348Z,4.57
2019-01-25T23:02:07.537Z,5.30
2019-01-25T23:05:12.065Z,6.37
2019-01-25T23:07:39.257Z,5.23
2019-01-25T23:10:19.077Z,5.77
2019-01-25T23:12:46.310Z,5.57
2019-01-25T23:15:15.585Z,4.60
2019-01-25T23:17:44.283Z,6.23
2019-01-25T23:22:39.483Z,5.50
2019-01-25T23:25:07.766Z,5.23
2019-01-25T23:27:35.031Z,4.87
2019-01-25T23:30:02.239Z,5.10
2019-01-25T23:32:29.436Z,4.60
2019-01-25T23:34:56.677Z,5.10
2019-01-25T23:37:23.899Z,5.03
2019-01-25T23:39:51.103Z,5.17
2019-01-25T23:42:18.358Z,5.40
2019-01-25T23:44:45.593Z,4.80
2019-01-25T23:47:12.809Z,5.10
2019-01-25T23:49:40.007Z,4.70
2019-01-25T23:52:07.204Z,4.83
2019-01-25T23:54:34.510Z,4.90
2019-01-25T23:57:01.712Z,4.97
2019-01-25T23:59:28.918Z,4.37
